sensor_id;sensor_type;location;lat;lon;timestamp;pressure;altitude;pressure_sealevel;temperature;humidity
3524;BME280;1776;53.330;11.498;2022-12-07T00:02:24;54279.16;;;-147.39;77.06
3524;BME280;1776;53.330;11.498;2022-12-07T00:04:49;54305.81;;;-147.39;76.90
3524;BME280;1776;53.330;11.498;2022-12-07T00:07:14;54273.00;;;-147.39;77.46
3524;BME280;1776;53.330;11.498;2022-12-07T00:09:40;54273.00;;;-147.39;77.77
3524;BME280;1776;53.330;11.498;2022-12-07T00:12:06;54295.56;;;-147.39;78.37
3524;BME280;1776;53.330;11.498;2022-12-07T00:14:32;54270.97;;;-147.39;78.26
3524;BME280;1776;53.330;11.498;2022-12-07T00:16:57;54311.94;;;-147.39;78.41
3524;BME280;1776;53.330;11.498;2022-12-07T00:19:22;54287.34;;;-147.39;78.87
3524;BME280;1776;53.330;11.498;2022-12-07T00:21:48;54283.25;;;-147.39;79.06
3524;BME280;1776;53.330;11.498;2022-12-07T00:24:13;54285.31;;;-147.39;79.33
3524;BME280;1776;53.330;11.498;2022-12-07T00:26:40;54301.69;;;-147.39;79.12
3524;BME280;1776;53.330;11.498;2022-12-07T00:29:10;54346.78;;;-147.39;79.65
3524;BME280;1776;53.330;11.498;2022-12-07T00:31:37;54268.91;;;-147.39;79.60
3524;BME280;1776;53.330;11.498;2022-12-07T00:34:07;54291.47;;;-147.39;79.43
3524;BME280;1776;53.330;11.498;2022-12-07T00:36:32;54275.06;;;-147.39;79.61
3524;BME280;1776;53.330;11.498;2022-12-07T00:38:59;54293.50;;;-147.39;79.77
3524;BME280;1776;53.330;11.498;2022-12-07T00:41:25;54305.81;;;-147.39;79.83
3524;BME280;1776;53.330;11.498;2022-12-07T00:43:51;54277.13;;;-147.39;79.97
3524;BME280;1776;53.330;11.498;2022-12-07T00:46:18;54273.00;;;-147.39;79.94
3524;BME280;1776;53.330;11.498;2022-12-07T00:48:43;54260.72;;;-147.39;80.23
3524;BME280;1776;53.330;11.498;2022-12-07T00:51:13;54285.31;;;-147.39;80.33
3524;BME280;1776;53.330;11.498;2022-12-07T00:53:40;54314.00;;;-147.39;80.74
3524;BME280;1776;53.330;11.498;2022-12-07T00:56:11;54297.59;;;-147.39;80.43
3524;BME280;1776;53.330;11.498;2022-12-07T00:58:36;54309.91;;;-147.39;80.97
3524;BME280;1776;53.330;11.498;2022-12-07T01:01:03;54303.75;;;-147.39;81.31
3524;BME280;1776;53.330;11.498;2022-12-07T01:03:29;54293.50;;;-147.39;80.93
3524;BME280;1776;53.330;11.498;2022-12-07T01:05:55;54303.75;;;-147.39;81.41
3524;BME280;1776;53.330;11.498;2022-12-07T01:08:22;54301.69;;;-147.39;81.35
3524;BME280;1776;53.330;11.498;2022-12-07T01:10:48;54289.41;;;-147.39;81.45
3524;BME280;1776;53.330;11.498;2022-12-07T01:13:14;54281.22;;;-147.39;81.47
3524;BME280;1776;53.330;11.498;2022-12-07T01:15:41;54299.66;;;-147.39;81.36
3524;BME280;1776;53.330;11.498;2022-12-07T01:18:06;54270.97;;;-147.39;81.84
3524;BME280;1776;53.330;11.498;2022-12-07T01:20:32;54279.16;;;-147.39;82.17
3524;BME280;1776;53.330;11.498;2022-12-07T01:22:57;54281.22;;;-147.39;82.22
3524;BME280;1776;53.330;11.498;2022-12-07T01:25:22;54295.56;;;-147.39;82.08
3524;BME280;1776;53.330;11.498;2022-12-07T01:27:47;54285.31;;;-147.39;82.49
3524;BME280;1776;53.330;11.498;2022-12-07T01:30:13;54285.31;;;-147.39;82.49
3524;BME280;1776;53.330;11.498;2022-12-07T01:32:38;54277.13;;;-147.39;82.83
3524;BME280;1776;53.330;11.498;2022-12-07T01:35:04;54316.03;;;-147.39;83.00
3524;BME280;1776;53.330;11.498;2022-12-07T01:37:34;54277.13;;;-147.39;83.21
3524;BME280;1776;53.330;11.498;2022-12-07T01:40:00;54283.25;;;-147.39;82.94
3524;BME280;1776;53.330;11.498;2022-12-07T01:42:25;54248.44;;;-147.39;82.86
3524;BME280;1776;53.330;11.498;2022-12-07T01:47:43;54287.34;;;-147.39;82.89
3524;BME280;1776;53.330;11.498;2022-12-07T01:50:11;54287.34;;;-147.39;83.00
3524;BME280;1776;53.330;11.498;2022-12-07T01:52:38;54305.81;;;-147.39;83.04
3524;BME280;1776;53.330;11.498;2022-12-07T01:55:07;54236.13;;;-147.39;82.95
3524;BME280;1776;53.330;11.498;2022-12-07T01:57:35;54297.59;;;-147.39;83.10
3524;BME280;1776;53.330;11.498;2022-12-07T02:00:03;54270.97;;;-147.39;83.40
3524;BME280;1776;53.330;11.498;2022-12-07T02:02:32;54318.09;;;-147.39;83.43
3524;BME280;1776;53.330;11.498;2022-12-07T02:04:59;54279.16;;;-147.39;83.57
3524;BME280;1776;53.330;11.498;2022-12-07T02:07:26;54295.56;;;-147.39;83.65
3524;BME280;1776;53.330;11.498;2022-12-07T02:09:52;54262.78;;;-147.39;83.70
3524;BME280;1776;53.330;11.498;2022-12-07T02:12:19;54270.97;;;-147.39;83.66
3524;BME280;1776;53.330;11.498;2022-12-07T02:14:44;54299.66;;;-147.39;84.28
3524;BME280;1776;53.330;11.498;2022-12-07T02:17:18;54281.22;;;-147.39;84.33
3524;BME280;1776;53.330;11.498;2022-12-07T02:22:29;54314.00;;;-147.39;84.14
3524;BME280;1776;53.330;11.498;2022-12-07T02:25:20;54297.59;;;-147.39;84.55
3524;BME280;1776;53.330;11.498;2022-12-07T02:28:07;54268.91;;;-147.39;84.55
3524;BME280;1776;53.330;11.498;2022-12-07T02:30:42;54277.13;;;-147.39;84.22
3524;BME280;1776;53.330;11.498;2022-12-07T02:33:16;54287.34;;;-147.39;84.47
3524;BME280;1776;53.330;11.498;2022-12-07T02:40:50;54277.13;;;-147.39;84.56
3524;BME280;1776;53.330;11.498;2022-12-07T02:43:21;54311.94;;;-147.39;84.60
3524;BME280;1776;53.330;11.498;2022-12-07T02:45:50;54285.31;;;-147.39;84.68
3524;BME280;1776;53.330;11.498;2022-12-07T02:48:17;54262.78;;;-147.39;84.49
3524;BME280;1776;53.330;11.498;2022-12-07T02:50:48;54268.91;;;-147.39;84.47
3524;BME280;1776;53.330;11.498;2022-12-07T02:53:33;54287.34;;;-147.39;84.61
3524;BME280;1776;53.330;11.498;2022-12-07T02:56:08;54260.72;;;-147.39;84.72
3524;BME280;1776;53.330;11.498;2022-12-07T02:58:50;54289.41;;;-147.39;84.74
3524;BME280;1776;53.330;11.498;2022-12-07T03:01:39;54277.13;;;-147.39;84.74
3524;BME280;1776;53.330;11.498;2022-12-07T03:04:24;54240.22;;;-147.39;84.45
3524;BME280;1776;53.330;11.498;2022-12-07T03:07:00;54248.44;;;-147.39;84.45
3524;BME280;1776;53.330;11.498;2022-12-07T03:09:33;54281.22;;;-147.39;84.69
3524;BME280;1776;53.330;11.498;2022-12-07T03:12:10;54389.81;;;-147.39;84.58
3524;BME280;1776;53.330;11.498;2022-12-07T03:14:41;54311.94;;;-147.39;84.52
3524;BME280;1776;53.330;11.498;2022-12-07T03:17:16;54266.88;;;-147.39;84.56
3524;BME280;1776;53.330;11.498;2022-12-07T03:19:45;54273.00;;;-147.39;84.52
3524;BME280;1776;53.330;11.498;2022-12-07T03:22:13;54273.00;;;-147.39;84.46
3524;BME280;1776;53.330;11.498;2022-12-07T03:24:47;54273.00;;;-147.39;84.32
3524;BME280;1776;53.330;11.498;2022-12-07T03:27:20;54277.13;;;-147.39;84.33
3524;BME280;1776;53.330;11.498;2022-12-07T03:29:51;54273.00;;;-147.39;83.99
3524;BME280;1776;53.330;11.498;2022-12-07T03:32:24;54285.31;;;-147.39;84.37
3524;BME280;1776;53.330;11.498;2022-12-07T03:35:03;54260.72;;;-147.39;84.32
3524;BME280;1776;53.330;11.498;2022-12-07T03:37:49;54295.56;;;-147.39;84.58
3524;BME280;1776;53.330;11.498;2022-12-07T03:40:17;54295.56;;;-147.39;84.70
3524;BME280;1776;53.330;11.498;2022-12-07T03:42:45;54314.00;;;-147.39;85.05
3524;BME280;1776;53.330;11.498;2022-12-07T03:45:12;54246.38;;;-147.39;85.22
3524;BME280;1776;53.330;11.498;2022-12-07T03:47:47;54279.16;;;-147.39;85.09
3524;BME280;1776;53.330;11.498;2022-12-07T03:50:28;54285.31;;;-147.39;84.95
3524;BME280;1776;53.330;11.498;2022-12-07T03:53:01;54283.25;;;-147.39;85.00
3524;BME280;1776;53.330;11.498;2022-12-07T03:55:32;54266.88;;;-147.39;84.68
3524;BME280;1776;53.330;11.498;2022-12-07T03:58:05;54281.22;;;-147.39;84.62
3524;BME280;1776;53.330;11.498;2022-12-07T04:00:31;54281.22;;;-147.39;84.75
3524;BME280;1776;53.330;11.498;2022-12-07T04:02:57;54281.22;;;-147.39;84.54
3524;BME280;1776;53.330;11.498;2022-12-07T04:05:23;54289.41;;;-147.39;84.50
3524;BME280;1776;53.330;11.498;2022-12-07T04:07:48;54279.16;;;-147.39;84.61
3524;BME280;1776;53.330;11.498;2022-12-07T04:10:14;54258.69;;;-147.39;84.07
3524;BME280;1776;53.330;11.498;2022-12-07T04:12:39;54240.22;;;-147.39;84.17
3524;BME280;1776;53.330;11.498;2022-12-07T04:15:05;54291.47;;;-147.39;84.16
3524;BME280;1776;53.330;11.498;2022-12-07T04:17:30;54264.81;;;-147.39;84.37
3524;BME280;1776;53.330;11.498;2022-12-07T04:19:56;54264.81;;;-147.39;84.50
3524;BME280;1776;53.330;11.498;2022-12-07T04:22:21;54250.47;;;-147.39;84.22
3524;BME280;1776;53.330;11.498;2022-12-07T04:24:46;54273.00;;;-147.39;83.93
3524;BME280;1776;53.330;11.498;2022-12-07T04:27:12;54266.88;;;-147.39;83.84
3524;BME280;1776;53.330;11.498;2022-12-07T04:29:37;54246.38;;;-147.39;83.66
3524;BME280;1776;53.330;11.498;2022-12-07T04:32:02;54256.63;;;-147.39;83.31
3524;BME280;1776;53.330;11.498;2022-12-07T04:34:28;54270.97;;;-147.39;83.21
3524;BME280;1776;53.330;11.498;2022-12-07T04:36:53;54252.53;;;-147.39;83.22
3524;BME280;1776;53.330;11.498;2022-12-07T04:39:25;54295.56;;;-147.39;83.29
3524;BME280;1776;53.330;11.498;2022-12-07T04:41:51;54281.22;;;-147.39;83.16
3524;BME280;1776;53.330;11.498;2022-12-07T04:44:17;54289.41;;;-147.39;82.86
3524;BME280;1776;53.330;11.498;2022-12-07T04:46:43;54289.41;;;-147.39;83.06
3524;BME280;1776;53.330;11.498;2022-12-07T04:49:09;54299.66;;;-147.39;83.02
3524;BME280;1776;53.330;11.498;2022-12-07T04:51:34;54297.59;;;-147.39;82.89
3524;BME280;1776;53.330;11.498;2022-12-07T04:53:59;54270.97;;;-147.39;82.83
3524;BME280;1776;53.330;11.498;2022-12-07T04:56:25;54258.69;;;-147.39;82.97
3524;BME280;1776;53.330;11.498;2022-12-07T04:58:52;54260.72;;;-147.39;82.73
3524;BME280;1776;53.330;11.498;2022-12-07T05:01:18;54293.50;;;-147.39;82.71
3524;BME280;1776;53.330;11.498;2022-12-07T05:03:43;54277.13;;;-147.39;82.41
3524;BME280;1776;53.330;11.498;2022-12-07T05:06:10;54262.78;;;-147.39;82.41
3524;BME280;1776;53.330;11.498;2022-12-07T05:08:35;54252.53;;;-147.39;82.26
3524;BME280;1776;53.330;11.498;2022-12-07T05:11:01;54268.91;;;-147.39;82.17
3524;BME280;1776;53.330;11.498;2022-12-07T05:13:27;54275.06;;;-147.39;82.06
3524;BME280;1776;53.330;11.498;2022-12-07T05:15:53;54225.88;;;-147.39;82.25
3524;BME280;1776;53.330;11.498;2022-12-07T05:18:18;54266.88;;;-147.39;82.29
3524;BME280;1776;53.330;11.498;2022-12-07T05:20:44;54248.44;;;-147.39;81.81
3524;BME280;1776;53.330;11.498;2022-12-07T05:23:09;54281.22;;;-147.39;81.83
3524;BME280;1776;53.330;11.498;2022-12-07T05:25:35;54283.25;;;-147.39;81.50
3524;BME280;1776;53.330;11.498;2022-12-07T05:28:00;54234.09;;;-147.39;81.31
3524;BME280;1776;53.330;11.498;2022-12-07T05:30:26;54283.25;;;-147.39;81.18
3524;BME280;1776;53.330;11.498;2022-12-07T05:32:51;54291.47;;;-147.39;81.42
3524;BME280;1776;53.330;11.498;2022-12-07T05:35:17;54266.88;;;-147.39;80.63
3524;BME280;1776;53.330;11.498;2022-12-07T05:37:42;54258.69;;;-147.39;80.29
3524;BME280;1776;53.330;11.498;2022-12-07T05:40:08;54287.34;;;-147.39;79.83
3524;BME280;1776;53.330;11.498;2022-12-07T05:42:34;54301.69;;;-147.39;79.69
3524;BME280;1776;53.330;11.498;2022-12-07T05:44:59;54299.66;;;-147.39;79.74
3524;BME280;1776;53.330;11.498;2022-12-07T05:47:24;54283.25;;;-147.39;80.04
3524;BME280;1776;53.330;11.498;2022-12-07T05:49:50;54273.00;;;-147.39;80.14
3524;BME280;1776;53.330;11.498;2022-12-07T05:52:15;54307.84;;;-147.39;80.06
3524;BME280;1776;53.330;11.498;2022-12-07T05:54:41;54311.94;;;-147.39;80.15
3524;BME280;1776;53.330;11.498;2022-12-07T05:57:06;54287.34;;;-147.39;80.39
3524;BME280;1776;53.330;11.498;2022-12-07T05:59:31;54287.34;;;-147.39;80.68
3524;BME280;1776;53.330;11.498;2022-12-07T06:02:03;54262.78;;;-147.39;80.87
3524;BME280;1776;53.330;11.498;2022-12-07T06:04:32;54250.47;;;-147.39;80.46
3524;BME280;1776;53.330;11.498;2022-12-07T06:06:57;54270.97;;;-147.39;80.86
3524;BME280;1776;53.330;11.498;2022-12-07T06:09:24;54291.47;;;-147.39;80.31
3524;BME280;1776;53.330;11.498;2022-12-07T06:11:50;54273.00;;;-147.39;80.43
3524;BME280;1776;53.330;11.498;2022-12-07T06:14:34;54283.25;;;-147.39;80.16
3524;BME280;1776;53.330;11.498;2022-12-07T06:17:00;54285.31;;;-147.39;80.29
3524;BME280;1776;53.330;11.498;2022-12-07T06:19:25;54262.78;;;-147.39;80.08
3524;BME280;1776;53.330;11.498;2022-12-07T06:21:50;54277.13;;;-147.39;79.89
3524;BME280;1776;53.330;11.498;2022-12-07T06:24:16;54289.41;;;-147.39;79.89
3524;BME280;1776;53.330;11.498;2022-12-07T06:26:42;54289.41;;;-147.39;79.66
3524;BME280;1776;53.330;11.498;2022-12-07T06:29:08;54277.13;;;-147.39;79.71
3524;BME280;1776;53.330;11.498;2022-12-07T06:31:33;54287.34;;;-147.39;79.48
3524;BME280;1776;53.330;11.498;2022-12-07T06:34:01;54291.47;;;-147.39;79.08
3524;BME280;1776;53.330;11.498;2022-12-07T06:36:26;54289.41;;;-147.39;79.28
3524;BME280;1776;53.330;11.498;2022-12-07T06:38:52;54291.47;;;-147.39;79.05
3524;BME280;1776;53.330;11.498;2022-12-07T06:41:17;54301.69;;;-147.39;78.82
3524;BME280;1776;53.330;11.498;2022-12-07T06:43:42;54281.22;;;-147.39;78.61
3524;BME280;1776;53.330;11.498;2022-12-07T06:46:08;54264.81;;;-147.39;78.84
3524;BME280;1776;53.330;11.498;2022-12-07T06:48:33;54307.84;;;-147.39;78.76
3524;BME280;1776;53.330;11.498;2022-12-07T06:50:58;54299.66;;;-147.39;78.74
3524;BME280;1776;53.330;11.498;2022-12-07T06:53:24;54260.72;;;-147.39;78.41
3524;BME280;1776;53.330;11.498;2022-12-07T06:55:49;54289.41;;;-147.39;78.34
3524;BME280;1776;53.330;11.498;2022-12-07T06:58:15;54287.34;;;-147.39;78.34
3524;BME280;1776;53.330;11.498;2022-12-07T07:00:40;54293.50;;;-147.39;77.96
3524;BME280;1776;53.330;11.498;2022-12-07T07:03:06;54264.81;;;-147.39;78.24
3524;BME280;1776;53.330;11.498;2022-12-07T07:05:31;54260.72;;;-147.39;78.04
3524;BME280;1776;53.330;11.498;2022-12-07T07:07:56;54281.22;;;-147.39;78.20
3524;BME280;1776;53.330;11.498;2022-12-07T07:10:21;54309.91;;;-147.39;78.34
3524;BME280;1776;53.330;11.498;2022-12-07T07:12:47;54289.41;;;-147.39;78.36
3524;BME280;1776;53.330;11.498;2022-12-07T07:15:12;54295.56;;;-147.39;78.70
3524;BME280;1776;53.330;11.498;2022-12-07T07:17:37;54291.47;;;-147.39;78.82
3524;BME280;1776;53.330;11.498;2022-12-07T07:20:03;54309.91;;;-147.39;78.53
3524;BME280;1776;53.330;11.498;2022-12-07T07:22:29;54301.69;;;-147.39;78.90
3524;BME280;1776;53.330;11.498;2022-12-07T07:24:54;54293.50;;;-147.39;78.64
3524;BME280;1776;53.330;11.498;2022-12-07T07:27:19;54322.19;;;-147.39;78.41
3524;BME280;1776;53.330;11.498;2022-12-07T07:29:45;54283.25;;;-147.39;78.49
3524;BME280;1776;53.330;11.498;2022-12-07T07:32:10;54262.78;;;-147.39;78.01
3524;BME280;1776;53.330;11.498;2022-12-07T07:34:35;54293.50;;;-147.39;78.05
3524;BME280;1776;53.330;11.498;2022-12-07T07:37:00;54299.66;;;-147.39;77.67
3524;BME280;1776;53.330;11.498;2022-12-07T07:39:26;54275.06;;;-147.39;77.49
3524;BME280;1776;53.330;11.498;2022-12-07T07:41:51;54297.59;;;-147.39;77.47
3524;BME280;1776;53.330;11.498;2022-12-07T07:44:16;54289.41;;;-147.39;77.52
3524;BME280;1776;53.330;11.498;2022-12-07T07:46:41;54287.34;;;-147.39;77.27
3524;BME280;1776;53.330;11.498;2022-12-07T07:49:08;54307.84;;;-147.39;77.63
3524;BME280;1776;53.330;11.498;2022-12-07T07:51:35;54297.59;;;-147.39;77.50
3524;BME280;1776;53.330;11.498;2022-12-07T07:54:00;54277.13;;;-147.39;77.61
3524;BME280;1776;53.330;11.498;2022-12-07T07:56:25;54270.97;;;-147.39;77.28
3524;BME280;1776;53.330;11.498;2022-12-07T07:58:55;54324.25;;;-147.39;77.23
3524;BME280;1776;53.330;11.498;2022-12-07T08:01:20;54273.00;;;-147.39;77.09
3524;BME280;1776;53.330;11.498;2022-12-07T08:03:46;54297.59;;;-147.39;77.21
3524;BME280;1776;53.330;11.498;2022-12-07T08:06:12;54314.00;;;-147.39;77.52
3524;BME280;1776;53.330;11.498;2022-12-07T08:08:37;54262.78;;;-147.39;77.86
3524;BME280;1776;53.330;11.498;2022-12-07T08:11:06;54309.91;;;-147.39;77.55
3524;BME280;1776;53.330;11.498;2022-12-07T08:13:31;54330.38;;;-147.39;78.04
3524;BME280;1776;53.330;11.498;2022-12-07T08:15:57;54299.66;;;-147.39;78.04
3524;BME280;1776;53.330;11.498;2022-12-07T08:18:23;54273.00;;;-147.39;78.28
3524;BME280;1776;53.330;11.498;2022-12-07T08:20:48;54291.47;;;-147.39;78.05
3524;BME280;1776;53.330;11.498;2022-12-07T08:23:13;54268.91;;;-147.39;78.37
3524;BME280;1776;53.330;11.498;2022-12-07T08:25:39;54287.34;;;-147.39;78.22
3524;BME280;1776;53.330;11.498;2022-12-07T08:28:04;54320.16;;;-147.39;78.52
3524;BME280;1776;53.330;11.498;2022-12-07T08:30:30;54314.00;;;-147.39;78.34
3524;BME280;1776;53.330;11.498;2022-12-07T08:32:56;54262.78;;;-147.39;78.38
3524;BME280;1776;53.330;11.498;2022-12-07T08:35:22;54301.69;;;-147.39;78.62
3524;BME280;1776;53.330;11.498;2022-12-07T08:37:47;54318.09;;;-147.39;78.60
3524;BME280;1776;53.330;11.498;2022-12-07T08:40:13;54326.28;;;-147.39;78.62
3524;BME280;1776;53.330;11.498;2022-12-07T08:42:44;54307.84;;;-147.39;78.59
3524;BME280;1776;53.330;11.498;2022-12-07T08:45:14;54279.16;;;-147.39;78.99
3524;BME280;1776;53.330;11.498;2022-12-07T08:47:54;54291.47;;;-147.39;78.80
3524;BME280;1776;53.330;11.498;2022-12-07T08:50:22;54297.59;;;-147.39;78.70
3524;BME280;1776;53.330;11.498;2022-12-07T08:52:50;54297.59;;;-147.39;78.77
3524;BME280;1776;53.330;11.498;2022-12-07T08:55:17;54316.03;;;-147.39;78.65
3524;BME280;1776;53.330;11.498;2022-12-07T08:57:43;54266.88;;;-147.39;78.64
3524;BME280;1776;53.330;11.498;2022-12-07T09:00:08;54262.78;;;-147.39;78.92
3524;BME280;1776;53.330;11.498;2022-12-07T09:02:34;54279.16;;;-147.39;78.80
3524;BME280;1776;53.330;11.498;2022-12-07T09:04:59;54289.41;;;-147.39;78.53
3524;BME280;1776;53.330;11.498;2022-12-07T09:07:25;54342.69;;;-147.39;78.61
3524;BME280;1776;53.330;11.498;2022-12-07T09:09:51;54293.50;;;-147.39;78.68
3524;BME280;1776;53.330;11.498;2022-12-07T09:12:16;54260.72;;;-147.39;78.24
3524;BME280;1776;53.330;11.498;2022-12-07T09:14:41;54289.41;;;-147.39;78.45
3524;BME280;1776;53.330;11.498;2022-12-07T09:17:08;54289.41;;;-147.39;78.04
3524;BME280;1776;53.330;11.498;2022-12-07T09:19:34;54301.69;;;-147.39;77.37
3524;BME280;1776;53.330;11.498;2022-12-07T09:21:59;54279.16;;;-147.39;76.92
3524;BME280;1776;53.330;11.498;2022-12-07T09:24:24;54277.13;;;-147.39;76.30
3524;BME280;1776;53.330;11.498;2022-12-07T09:26:50;54250.47;;;-147.39;71.50
3524;BME280;1776;53.330;11.498;2022-12-07T09:29:15;54193.09;;;-147.39;66.57
3524;BME280;1776;53.330;11.498;2022-12-07T09:31:40;54186.97;;;-147.39;65.42
3524;BME280;1776;53.330;11.498;2022-12-07T09:34:06;54232.03;;;-147.39;66.86
3524;BME280;1776;53.330;11.498;2022-12-07T09:36:32;54258.69;;;-147.39;70.50
3524;BME280;1776;53.330;11.498;2022-12-07T09:38:57;54236.13;;;-147.39;71.02
3524;BME280;1776;53.330;11.498;2022-12-07T09:41:24;54275.06;;;-147.39;72.13
3524;BME280;1776;53.330;11.498;2022-12-07T09:43:51;54248.44;;;-147.39;73.54
3524;BME280;1776;53.330;11.498;2022-12-07T09:46:19;54248.44;;;-147.39;73.55
3524;BME280;1776;53.330;11.498;2022-12-07T09:48:45;54248.44;;;-147.39;73.84
3524;BME280;1776;53.330;11.498;2022-12-07T09:51:22;54264.81;;;-147.39;74.47
3524;BME280;1776;53.330;11.498;2022-12-07T09:53:49;54250.47;;;-147.39;74.57
3524;BME280;1776;53.330;11.498;2022-12-07T09:56:16;54264.81;;;-147.39;74.59
3524;BME280;1776;53.330;11.498;2022-12-07T09:58:42;54273.00;;;-147.39;75.01
3524;BME280;1776;53.330;11.498;2022-12-07T10:03:35;54318.09;;;-147.39;75.73
3524;BME280;1776;53.330;11.498;2022-12-07T10:06:04;54303.75;;;-147.39;76.02
3524;BME280;1776;53.330;11.498;2022-12-07T10:08:30;54283.25;;;-147.39;75.87
3524;BME280;1776;53.330;11.498;2022-12-07T10:10:56;54254.56;;;-147.39;75.71
3524;BME280;1776;53.330;11.498;2022-12-07T10:13:43;54242.28;;;-147.39;75.48
3524;BME280;1776;53.330;11.498;2022-12-07T10:16:40;54275.06;;;-147.39;75.26
3524;BME280;1776;53.330;11.498;2022-12-07T10:19:22;54279.16;;;-147.39;75.02
3524;BME280;1776;53.330;11.498;2022-12-07T10:22:10;54287.34;;;-147.39;75.01
3524;BME280;1776;53.330;11.498;2022-12-07T10:24:37;54262.78;;;-147.39;74.74
3524;BME280;1776;53.330;11.498;2022-12-07T10:29:47;54246.38;;;-147.39;74.80
3524;BME280;1776;53.330;11.498;2022-12-07T10:34:41;54248.44;;;-147.39;75.24
3524;BME280;1776;53.330;11.498;2022-12-07T10:37:16;54250.47;;;-147.39;74.87
3524;BME280;1776;53.330;11.498;2022-12-07T10:42:15;54279.16;;;-147.39;74.93
3524;BME280;1776;53.330;11.498;2022-12-07T10:44:41;54266.88;;;-147.39;74.90
3524;BME280;1776;53.330;11.498;2022-12-07T10:57:56;54234.09;;;-147.39;73.83
3524;BME280;1776;53.330;11.498;2022-12-07T11:00:30;54258.69;;;-147.39;73.91
3524;BME280;1776;53.330;11.498;2022-12-07T11:03:29;54248.44;;;-147.39;73.49
3524;BME280;1776;53.330;11.498;2022-12-07T11:09:11;54244.34;;;-147.39;72.86
3524;BME280;1776;53.330;11.498;2022-12-07T11:11:59;54244.34;;;-147.39;72.98
3524;BME280;1776;53.330;11.498;2022-12-07T11:14:31;54258.69;;;-147.39;73.08
3524;BME280;1776;53.330;11.498;2022-12-07T11:17:23;54264.81;;;-147.39;72.87
3524;BME280;1776;53.330;11.498;2022-12-07T11:20:21;54242.28;;;-147.39;73.00
3524;BME280;1776;53.330;11.498;2022-12-07T11:23:01;54264.81;;;-147.39;72.78
3524;BME280;1776;53.330;11.498;2022-12-07T11:25:34;54285.31;;;-147.39;72.44
3524;BME280;1776;53.330;11.498;2022-12-07T11:28:43;54256.63;;;-147.39;72.24
3524;BME280;1776;53.330;11.498;2022-12-07T11:31:24;54258.69;;;-147.39;72.19
3524;BME280;1776;53.330;11.498;2022-12-07T11:33:59;54256.63;;;-147.39;72.10
3524;BME280;1776;53.330;11.498;2022-12-07T11:36:41;54273.00;;;-147.39;72.40
3524;BME280;1776;53.330;11.498;2022-12-07T11:39:35;54248.44;;;-147.39;71.84
3524;BME280;1776;53.330;11.498;2022-12-07T11:42:06;54264.81;;;-147.39;71.88
3524;BME280;1776;53.330;11.498;2022-12-07T11:45:23;54273.00;;;-147.39;71.28
3524;BME280;1776;53.330;11.498;2022-12-07T11:47:47;54273.00;;;-147.39;71.57
3524;BME280;1776;53.330;11.498;2022-12-07T11:50:42;54221.78;;;-147.39;71.57
3524;BME280;1776;53.330;11.498;2022-12-07T11:55:53;54258.69;;;-147.39;71.65
3524;BME280;1776;53.330;11.498;2022-12-07T12:00:47;54254.56;;;-147.39;71.70
3524;BME280;1776;53.330;11.498;2022-12-07T12:03:21;54238.19;;;-147.39;71.95
3524;BME280;1776;53.330;11.498;2022-12-07T12:05:53;54270.97;;;-147.39;71.94
3524;BME280;1776;53.330;11.498;2022-12-07T12:11:10;54266.88;;;-147.39;71.79
3524;BME280;1776;53.330;11.498;2022-12-07T12:14:02;54289.41;;;-147.39;72.26
3524;BME280;1776;53.330;11.498;2022-12-07T12:16:48;54268.91;;;-147.39;72.13
3524;BME280;1776;53.330;11.498;2022-12-07T12:19:41;54260.72;;;-147.39;72.21
3524;BME280;1776;53.330;11.498;2022-12-07T12:22:17;54260.72;;;-147.39;72.65
3524;BME280;1776;53.330;11.498;2022-12-07T12:24:46;54279.16;;;-147.39;72.46
3524;BME280;1776;53.330;11.498;2022-12-07T12:27:25;54240.22;;;-147.39;72.62
3524;BME280;1776;53.330;11.498;2022-12-07T12:29:57;54287.34;;;-147.39;72.78
3524;BME280;1776;53.330;11.498;2022-12-07T12:32:36;54281.22;;;-147.39;72.60
3524;BME280;1776;53.330;11.498;2022-12-07T12:35:28;54236.13;;;-147.39;72.58
3524;BME280;1776;53.330;11.498;2022-12-07T12:37:54;54258.69;;;-147.39;72.16
3524;BME280;1776;53.330;11.498;2022-12-07T12:42:50;54266.88;;;-147.39;72.27
3524;BME280;1776;53.330;11.498;2022-12-07T12:45:27;54268.91;;;-147.39;71.92
3524;BME280;1776;53.330;11.498;2022-12-07T12:47:56;54242.28;;;-147.39;71.56
3524;BME280;1776;53.330;11.498;2022-12-07T12:50:34;54248.44;;;-147.39;71.50
3524;BME280;1776;53.330;11.498;2022-12-07T12:53:05;54262.78;;;-147.39;71.16
3524;BME280;1776;53.330;11.498;2022-12-07T13:00:44;54248.44;;;-147.39;70.07
3524;BME280;1776;53.330;11.498;2022-12-07T13:03:27;54215.66;;;-147.39;69.44
3524;BME280;1776;53.330;11.498;2022-12-07T13:08:51;54283.25;;;-147.39;65.95
3524;BME280;1776;53.330;11.498;2022-12-07T13:11:39;54211.56;;;-147.39;64.59
3524;BME280;1776;53.330;11.498;2022-12-07T13:17:10;54273.00;;;-147.39;64.45
3524;BME280;1776;53.330;11.498;2022-12-07T13:25:01;54219.75;;;-147.39;64.18
3524;BME280;1776;53.330;11.498;2022-12-07T13:27:28;54277.13;;;-147.39;64.62
3524;BME280;1776;53.330;11.498;2022-12-07T13:29:56;54234.09;;;-147.39;64.47
3524;BME280;1776;53.330;11.498;2022-12-07T13:32:27;54223.84;;;-147.39;64.59
3524;BME280;1776;53.330;11.498;2022-12-07T13:34:53;54244.34;;;-147.39;64.56
3524;BME280;1776;53.330;11.498;2022-12-07T13:37:27;54248.44;;;-147.39;64.69
3524;BME280;1776;53.330;11.498;2022-12-07T13:39:56;54240.22;;;-147.39;65.16
3524;BME280;1776;53.330;11.498;2022-12-07T13:42:25;54252.53;;;-147.39;64.05
3524;BME280;1776;53.330;11.498;2022-12-07T13:44:52;54240.22;;;-147.39;64.29
3524;BME280;1776;53.330;11.498;2022-12-07T13:49:57;54250.47;;;-147.39;60.88
3524;BME280;1776;53.330;11.498;2022-12-07T13:52:25;54260.72;;;-147.39;61.39
3524;BME280;1776;53.330;11.498;2022-12-07T13:55:05;54236.13;;;-147.39;61.60
3524;BME280;1776;53.330;11.498;2022-12-07T13:57:38;54254.56;;;-147.39;60.93
3524;BME280;1776;53.330;11.498;2022-12-07T14:00:06;54262.78;;;-147.39;59.72
3524;BME280;1776;53.330;11.498;2022-12-07T14:05:27;54260.72;;;-147.39;59.90
3524;BME280;1776;53.330;11.498;2022-12-07T14:08:02;54244.34;;;-147.39;60.46
3524;BME280;1776;53.330;11.498;2022-12-07T14:10:33;54281.22;;;-147.39;60.41